Time;durP1;ratioP1;P1;durP2;ratioP2;P2;SDS_P1;SDS_P2;PMS_P1;PMS_P2;Temp;Humidity;BMP_temperature;BMP_pressure;BME280_temperature;BME280_humidity;BME280_pressure;Samples;Min_cycle;Max_cycle;Signal;HPM_P1;HPM_P2
2023/01/22 00:00:05;;;;;;;21.90;17.10;;;8.30;99.90;;;;;;5168257;28;20426;-63
2023/01/22 00:02:36;;;;;;;18.33;14.93;;;8.80;99.90;;;;;;5168222;28;20061;-63
2023/01/22 00:05:07;;;;;;;17.50;10.82;;;8.60;99.90;;;;;;5167887;28;20449;-63
2023/01/22 00:07:38;;;;;;;19.13;11.43;;;9.20;99.90;;;;;;5167988;28;20039;-63
2023/01/22 00:10:10;;;;;;;21.60;18.50;;;9.20;99.90;;;;;;5167862;28;20031;-63
2023/01/22 00:12:41;;;;;;;22.60;13.77;;;8.90;99.90;;;;;;5167895;28;20022;-64
2023/01/22 00:15:12;;;;;;;19.35;12.38;;;8.80;99.90;;;;;;5168046;28;20027;-63
2023/01/22 00:17:43;;;;;;;26.27;13.75;;;8.90;99.90;;;;;;5167782;28;20030;-63
2023/01/22 00:20:14;;;;;;;18.58;11.93;;;8.60;99.90;;;;;;5167915;28;20030;-64
2023/01/22 00:22:44;;;;;;;21.67;11.32;;;8.70;99.90;;;;;;5167939;28;20038;-63
2023/01/22 00:25:15;;;;;;;27.70;18.80;;;8.50;99.90;;;;;;5167884;28;20425;-63
2023/01/22 00:27:46;;;;;;;21.80;12.48;;;8.60;99.90;;;;;;5167746;28;20471;-64
2023/01/22 00:30:17;;;;;;;18.58;10.40;;;9.10;99.90;;;;;;5182783;28;20034;-63
2023/01/22 00:32:48;;;;;;;30.98;11.52;;;9.20;99.90;;;;;;5167529;28;20102;-63
2023/01/22 00:35:19;;;;;;;21.50;10.75;;;8.80;99.90;;;;;;5167257;28;20046;-63
2023/01/22 00:37:49;;;;;;;24.33;13.88;;;8.60;99.90;;;;;;5167546;28;20456;-64
2023/01/22 00:40:20;;;;;;;24.48;12.95;;;8.00;99.90;;;;;;5167614;28;20023;-63
2023/01/22 00:42:51;;;;;;;42.83;20.67;;;8.60;99.90;;;;;;5167575;28;20027;-63
2023/01/22 00:45:22;;;;;;;35.47;18.35;;;8.90;99.90;;;;;;5167388;28;20022;-63
2023/01/22 00:47:53;;;;;;;17.27;11.15;;;8.70;99.90;;;;;;5167468;28;20037;-63
2023/01/22 00:50:24;;;;;;;24.90;13.80;;;8.70;99.90;;;;;;5167492;28;20034;-63
2023/01/22 00:52:54;;;;;;;23.13;13.02;;;8.50;99.90;;;;;;5167266;28;20023;-63
2023/01/22 00:55:25;;;;;;;23.58;13.30;;;8.70;99.90;;;;;;5167081;28;20505;-63
2023/01/22 00:57:56;;;;;;;29.00;14.10;;;9.00;99.90;;;;;;5166316;28;20097;-63
2023/01/22 01:00:27;;;;;;;29.27;21.80;;;9.00;99.90;;;;;;5167089;28;20026;-63
2023/01/22 01:05:47;;;;;;;24.65;13.48;;;8.50;99.90;;;;;;5167081;28;20053;-63
2023/01/22 01:08:17;;;;;;;30.52;17.35;;;8.90;99.90;;;;;;5167017;28;20018;-63
2023/01/22 01:10:52;;;;;;;24.55;14.15;;;9.00;99.90;;;;;;5166993;28;20058;-63
2023/01/22 01:13:24;;;;;;;25.88;13.65;;;8.60;99.90;;;;;;5166796;28;20025;-63
2023/01/22 01:16:07;;;;;;;19.48;14.85;;;8.30;99.90;;;;;;5166776;28;20088;-63
2023/01/22 01:18:39;;;;;;;25.25;13.77;;;8.90;99.90;;;;;;5166858;28;20034;-63
2023/01/22 01:21:11;;;;;;;23.70;12.02;;;9.00;99.90;;;;;;5166761;28;20073;-71
2023/01/22 01:23:42;;;;;;;22.42;11.90;;;8.60;99.90;;;;;;5166725;28;20037;-63
2023/01/22 01:26:15;;;;;;;32.33;18.45;;;8.50;99.90;;;;;;5166639;28;20359;-72
2023/01/22 01:28:46;;;;;;;40.50;27.38;;;8.90;99.90;;;;;;5166573;28;20026;-63
2023/01/22 01:31:19;;;;;;;62.53;30.13;;;8.90;99.90;;;;;;5166454;28;20056;-63
2023/01/22 01:33:50;;;;;;;35.65;20.30;;;8.30;99.90;;;;;;5166554;28;20390;-64
2023/01/22 01:36:22;;;;;;;36.60;21.17;;;8.90;99.90;;;;;;5166053;28;20069;-63
2023/01/22 01:38:53;;;;;;;42.08;22.25;;;8.80;99.90;;;;;;5166322;28;20018;-63
2023/01/22 01:41:25;;;;;;;43.63;21.95;;;8.50;99.90;;;;;;5166328;28;20056;-63
2023/01/22 01:44:15;;;;;;;39.28;18.70;;;8.60;99.90;;;;;;5166324;28;20030;-63
2023/01/22 01:46:53;;;;;;;32.47;19.30;;;8.60;99.90;;;;;;5166196;28;20064;-63
2023/01/22 01:49:40;;;;;;;30.23;18.35;;;8.80;99.90;;;;;;5166206;28;20498;-63
2023/01/22 01:52:13;;;;;;;34.13;18.92;;;8.70;99.90;;;;;;5166150;28;20030;-64
2023/01/22 01:54:49;;;;;;;35.47;20.13;;;8.70;99.90;;;;;;5166095;28;20359;-63
2023/01/22 01:57:25;;;;;;;31.63;18.73;;;8.70;99.90;;;;;;5165951;28;20158;-63
2023/01/22 01:59:57;;;;;;;30.33;18.02;;;8.20;99.90;;;;;;5166036;28;20030;-63
2023/01/22 02:02:28;;;;;;;30.38;16.10;;;8.10;99.90;;;;;;5165869;28;20027;-63
2023/01/22 02:04:59;;;;;;;28.52;16.88;;;8.40;99.90;;;;;;5165723;28;20038;-64
2023/01/22 02:07:30;;;;;;;32.17;18.00;;;8.40;99.90;;;;;;5165601;28;20521;-64
2023/01/22 02:10:04;;;;;;;32.40;20.05;;;8.20;99.90;;;;;;5165682;28;20041;-63
2023/01/22 02:12:35;;;;;;;26.50;18.38;;;8.50;99.90;;;;;;5165674;28;20026;-63
2023/01/22 02:15:07;;;;;;;25.63;16.63;;;8.50;99.90;;;;;;5165616;28;20038;-63
2023/01/22 02:17:38;;;;;;;29.63;17.63;;;8.40;99.90;;;;;;5165452;28;20097;-63
2023/01/22 02:20:10;;;;;;;30.90;17.55;;;8.40;99.90;;;;;;5165585;28;20038;-71
2023/01/22 02:22:41;;;;;;;27.33;16.67;;;8.10;99.90;;;;;;5165646;28;20022;-63
2023/01/22 02:25:11;;;;;;;27.00;16.17;;;8.00;99.90;;;;;;5165405;28;20030;-63
2023/01/22 02:27:42;;;;;;;33.22;21.10;;;8.20;99.90;;;;;;5165348;28;20030;-63
2023/01/22 02:30:13;;;;;;;23.60;14.50;;;7.70;99.90;;;;;;5165387;28;20172;-63
2023/01/22 02:32:44;;;;;;;30.08;22.67;;;8.10;99.90;;;;;;5165245;28;20113;-64
2023/01/22 02:35:15;;;;;;;24.70;13.30;;;7.80;99.90;;;;;;5164991;28;20513;-63
2023/01/22 02:37:46;;;;;;;29.98;21.55;;;8.00;99.90;;;;;;5165099;28;20033;-63
2023/01/22 02:40:17;;;;;;;33.15;26.45;;;7.50;99.90;;;;;;5165310;28;20485;-63
2023/01/22 02:42:47;;;;;;;34.20;28.30;;;7.60;99.90;;;;;;5165291;28;20456;-63
2023/01/22 02:45:18;;;;;;;33.63;29.05;;;7.40;99.90;;;;;;5165331;28;20041;-63
2023/01/22 02:47:49;;;;;;;36.45;26.40;;;7.80;99.90;;;;;;5165222;28;20117;-63
2023/01/22 02:50:20;;;;;;;33.22;29.42;;;7.90;99.90;;;;;;5165155;28;20034;-63
2023/01/22 02:52:50;;;;;;;29.63;22.33;;;7.80;99.90;;;;;;5165287;28;20022;-63
2023/01/22 02:55:21;;;;;;;29.95;25.35;;;8.10;99.90;;;;;;5165070;28;20153;-63
2023/01/22 02:57:52;;;;;;;28.15;21.52;;;7.50;99.90;;;;;;5165105;28;20027;-62
2023/01/22 03:00:23;;;;;;;32.30;24.90;;;7.80;99.90;;;;;;5165020;28;20117;-71
2023/01/22 03:02:54;;;;;;;36.35;27.83;;;7.40;99.90;;;;;;5165203;28;20486;-63
2023/01/22 03:05:24;;;;;;;34.13;28.55;;;7.80;99.90;;;;;;5165024;28;20049;-63
2023/01/22 03:07:55;;;;;;;50.75;36.05;;;7.80;99.90;;;;;;5165096;28;20011;-63
2023/01/22 03:10:26;;;;;;;47.55;30.65;;;7.90;99.90;;;;;;5165142;28;20034;-63
2023/01/22 03:21:24;;;;;;;33.88;28.05;;;7.20;99.90;;;;;;5168226;28;20133;-71
2023/01/22 03:23:55;;;;;;;35.15;29.77;;;7.30;99.90;;;;;;5168935;28;20105;-63
2023/01/22 03:26:27;;;;;;;33.95;29.98;;;7.40;99.90;;;;;;5168915;28;20015;-63
2023/01/22 03:28:58;;;;;;;33.90;30.33;;;7.50;99.90;;;;;;5168803;28;20385;-63
2023/01/22 03:31:29;;;;;;;35.55;31.65;;;7.70;99.90;;;;;;5168941;28;20035;-63
2023/01/22 03:34:00;;;;;;;42.13;35.55;;;7.60;99.90;;;;;;5168834;28;20482;-63
2023/01/22 03:36:30;;;;;;;36.25;31.15;;;6.80;99.90;;;;;;5168308;28;20116;-66
2023/01/22 03:39:01;;;;;;;32.17;28.80;;;7.00;99.90;;;;;;5168904;28;20462;-63
2023/01/22 03:41:32;;;;;;;40.50;34.33;;;6.80;99.90;;;;;;5168783;28;20030;-63
2023/01/22 03:44:03;;;;;;;54.22;38.05;;;7.20;99.90;;;;;;5168691;28;20026;-63
2023/01/22 03:46:34;;;;;;;42.08;33.38;;;6.80;99.90;;;;;;5168555;28;20031;-62
2023/01/22 03:49:09;;;;;;;42.55;33.08;;;7.10;99.90;;;;;;5168559;28;20529;-63
2023/01/22 03:51:40;;;;;;;35.65;30.02;;;7.40;99.90;;;;;;5168562;28;20638;-63
2023/01/22 03:54:12;;;;;;;36.60;28.75;;;7.40;99.90;;;;;;5168339;28;20105;-63
2023/01/22 03:56:43;;;;;;;44.22;30.23;;;7.20;99.90;;;;;;5168160;28;20415;-63
2023/01/22 03:59:14;;;;;;;40.78;30.35;;;6.90;99.90;;;;;;5168251;28;20050;-62
2023/01/22 04:01:45;;;;;;;40.45;29.85;;;6.50;99.90;;;;;;5168289;28;20069;-62
2023/01/22 04:04:16;;;;;;;35.80;32.05;;;7.00;99.90;;;;;;5168127;28;20462;-63
2023/01/22 04:06:46;;;;;;;32.97;27.42;;;7.00;99.90;;;;;;5167998;28;20038;-71
2023/01/22 04:09:17;;;;;;;37.83;30.73;;;7.00;99.90;;;;;;5167982;28;20019;-63
2023/01/22 04:11:48;;;;;;;35.10;29.27;;;7.10;99.90;;;;;;5168097;28;20073;-62
2023/01/22 04:14:19;;;;;;;35.22;24.98;;;6.80;99.90;;;;;;5167941;28;20137;-62
2023/01/22 04:16:50;;;;;;;31.13;23.30;;;6.60;99.90;;;;;;5167821;28;20105;-63
2023/01/22 04:19:21;;;;;;;29.83;21.73;;;6.80;99.90;;;;;;5167814;28;20485;-63
2023/01/22 04:21:52;;;;;;;28.88;22.17;;;6.80;99.90;;;;;;5167890;28;20031;-64
2023/01/22 04:24:23;;;;;;;28.48;22.50;;;6.30;99.90;;;;;;5167665;28;20088;-62
2023/01/22 04:26:54;;;;;;;33.67;26.17;;;6.80;99.90;;;;;;5167742;28;20026;-63
2023/01/22 04:29:24;;;;;;;41.90;29.33;;;7.10;99.90;;;;;;5167645;28;20129;-63
2023/01/22 04:31:55;;;;;;;40.58;30.15;;;7.10;99.90;;;;;;5166429;28;20096;-63
2023/01/22 04:34:26;;;;;;;62.33;40.45;;;6.60;99.90;;;;;;5167529;28;20054;-63
2023/01/22 04:36:57;;;;;;;51.80;31.15;;;6.80;99.90;;;;;;5167195;28;20054;-62
2023/01/22 04:39:30;;;;;;;31.98;26.17;;;6.80;99.90;;;;;;5167486;28;20026;-62
2023/01/22 04:42:00;;;;;;;41.00;26.48;;;6.90;99.90;;;;;;5167414;28;20061;-63
2023/01/22 04:44:31;;;;;;;29.02;24.92;;;6.80;99.90;;;;;;5167618;28;20505;-63
2023/01/22 04:47:02;;;;;;;37.80;26.70;;;6.50;99.90;;;;;;5167377;28;20065;-63
2023/01/22 04:49:33;;;;;;;37.28;23.35;;;6.70;99.90;;;;;;5167512;28;20037;-62
2023/01/22 04:52:04;;;;;;;35.53;23.08;;;6.70;99.90;;;;;;5167239;28;20378;-62
2023/01/22 04:54:35;;;;;;;32.88;22.15;;;6.20;99.90;;;;;;5167400;28;20493;-63
2023/01/22 04:57:06;;;;;;;32.10;22.30;;;6.10;99.90;;;;;;5167210;28;20034;-63
2023/01/22 04:59:37;;;;;;;35.55;21.05;;;6.60;99.90;;;;;;5167139;28;20490;-63
2023/01/22 05:02:07;;;;;;;32.50;19.85;;;6.20;99.90;;;;;;5167121;28;20026;-63
2023/01/22 05:04:38;;;;;;;32.50;20.45;;;5.80;99.90;;;;;;5166961;28;20033;-71
2023/01/22 05:07:09;;;;;;;28.88;20.25;;;6.50;99.90;;;;;;5166926;28;20030;-63
2023/01/22 05:09:40;;;;;;;30.35;20.27;;;6.40;99.90;;;;;;5166928;28;20038;-63
2023/01/22 05:12:11;;;;;;;33.55;25.08;;;6.60;99.90;;;;;;5166879;28;20394;-63
2023/01/22 05:14:41;;;;;;;31.42;24.88;;;6.60;99.90;;;;;;5167016;28;20041;-63
2023/01/22 05:17:12;;;;;;;34.97;25.13;;;6.60;99.90;;;;;;5167012;28;20096;-63
2023/01/22 05:19:43;;;;;;;33.47;23.00;;;6.10;99.90;;;;;;5166780;28;20109;-62
2023/01/22 05:22:14;;;;;;;29.98;23.17;;;6.30;99.90;;;;;;5181365;28;20030;-62
2023/01/22 05:24:45;;;;;;;30.20;22.52;;;6.60;99.90;;;;;;5166532;28;20034;-67
2023/01/22 05:27:15;;;;;;;27.63;23.35;;;6.60;99.90;;;;;;5166524;28;20037;-63
2023/01/22 05:29:46;;;;;;;36.13;24.02;;;6.50;99.90;;;;;;5166622;28;20034;-71
2023/01/22 05:32:17;;;;;;;36.03;23.63;;;6.10;99.90;;;;;;5166493;28;20026;-62
2023/01/22 05:34:48;;;;;;;34.13;22.13;;;6.10;99.90;;;;;;5166091;28;20065;-63
2023/01/22 05:37:19;;;;;;;32.15;20.27;;;6.30;99.90;;;;;;5166203;28;20035;-62
2023/01/22 05:39:50;;;;;;;30.45;23.98;;;6.50;99.90;;;;;;5166352;28;20568;-63
2023/01/22 05:42:21;;;;;;;34.85;26.08;;;6.70;99.90;;;;;;5166069;28;20088;-63
2023/01/22 05:44:52;;;;;;;29.90;22.65;;;6.70;99.90;;;;;;5166120;28;20109;-63
2023/01/22 05:47:23;;;;;;;31.60;24.25;;;6.80;99.90;;;;;;5166233;28;20030;-63
2023/01/22 05:49:53;;;;;;;29.98;23.73;;;6.70;99.90;;;;;;5166692;28;20363;-62
2023/01/22 05:52:24;;;;;;;31.95;22.83;;;6.30;99.90;;;;;;5166119;28;20121;-63
2023/01/22 05:54:55;;;;;;;29.75;22.15;;;6.60;99.90;;;;;;5166102;28;20022;-63
2023/01/22 05:57:28;;;;;;;31.92;25.92;;;6.60;99.90;;;;;;5166025;28;20031;-63
2023/01/22 05:59:59;;;;;;;30.52;23.65;;;6.70;99.90;;;;;;5165875;28;20018;-70
2023/01/22 06:02:30;;;;;;;36.15;27.00;;;6.00;99.90;;;;;;5165998;28;20383;-63
2023/01/22 06:05:00;;;;;;;34.33;25.05;;;6.30;99.90;;;;;;5165714;28;20031;-63
2023/01/22 06:07:31;;;;;;;31.98;23.88;;;6.70;99.90;;;;;;5165824;28;20045;-63
2023/01/22 06:10:03;;;;;;;34.20;22.38;;;6.70;99.90;;;;;;5165698;28;20077;-63
2023/01/22 06:12:34;;;;;;;30.45;22.70;;;6.80;99.90;;;;;;5165752;28;20109;-62
2023/01/22 06:15:05;;;;;;;29.77;21.95;;;6.40;99.90;;;;;;5165883;28;20101;-63
2023/01/22 06:17:36;;;;;;;26.63;22.90;;;6.50;99.90;;;;;;5165613;28;20173;-62
2023/01/22 06:20:09;;;;;;;39.25;24.15;;;6.50;99.90;;;;;;5165609;28;20019;-70
2023/01/22 06:22:40;;;;;;;32.30;23.45;;;6.60;99.90;;;;;;5165468;28;20034;-63
2023/01/22 06:25:10;;;;;;;31.58;26.15;;;7.00;99.90;;;;;;5165527;28;20017;-63
2023/01/22 06:27:41;;;;;;;34.08;28.20;;;6.60;99.90;;;;;;5165436;28;20113;-63
2023/01/22 06:30:12;;;;;;;32.80;29.45;;;6.40;99.90;;;;;;5165471;28;20030;-63
2023/01/22 06:32:43;;;;;;;33.13;29.52;;;6.70;99.90;;;;;;5165400;28;20023;-63
2023/01/22 06:35:14;;;;;;;32.88;24.10;;;6.70;99.90;;;;;;5164997;28;20490;-66
2023/01/22 06:37:46;;;;;;;33.60;27.25;;;6.50;99.90;;;;;;5165575;28;20034;-66
2023/01/22 06:40:17;;;;;;;38.42;33.00;;;6.70;99.90;;;;;;5165362;28;20029;-62
2023/01/22 06:42:47;;;;;;;37.88;33.85;;;7.20;99.90;;;;;;5165225;28;20429;-63
2023/01/22 06:45:18;;;;;;;34.90;30.38;;;7.50;99.90;;;;;;5165314;28;20390;-63
2023/01/22 06:47:49;;;;;;;39.72;33.75;;;7.50;99.90;;;;;;5165219;28;20026;-63
2023/01/22 06:50:20;;;;;;;35.28;31.38;;;7.30;99.90;;;;;;5165152;28;20386;-63
2023/01/22 06:52:51;;;;;;;35.13;31.63;;;7.70;99.90;;;;;;5165415;28;20394;-63
2023/01/22 06:55:21;;;;;;;34.88;31.27;;;7.50;99.90;;;;;;5164522;28;20022;-63
2023/01/22 06:57:56;;;;;;;35.28;27.83;;;7.70;99.90;;;;;;5165147;28;20026;-63
2023/01/22 07:00:27;;;;;;;38.58;34.80;;;7.40;99.90;;;;;;5165170;28;20410;-62
2023/01/22 07:02:58;;;;;;;33.40;23.60;;;7.50;99.90;;;;;;5164163;28;20060;-63
2023/01/22 07:05:29;;;;;;;31.30;23.95;;;7.70;99.90;;;;;;5164803;28;20065;-62
2023/01/22 07:08:00;;;;;;;30.98;20.60;;;8.10;99.90;;;;;;5165022;28;20378;-63
2023/01/22 07:10:31;;;;;;;31.55;21.55;;;8.20;99.90;;;;;;5164955;28;20042;-63
2023/01/22 07:13:03;;;;;;;28.70;17.77;;;8.40;99.90;;;;;;5165075;28;20089;-63
2023/01/22 07:15:33;;;;;;;29.77;17.77;;;8.50;99.90;;;;;;5164852;28;20027;-63
2023/01/22 07:18:04;;;;;;;34.65;15.38;;;8.60;99.90;;;;;;5164400;28;20109;-64
2023/01/22 07:20:35;;;;;;;37.00;19.73;;;8.60;99.90;;;;;;5164765;28;20030;-65
2023/01/22 07:23:07;;;;;;;38.42;25.13;;;8.90;99.90;;;;;;5164814;28;20462;-63
2023/01/22 07:25:38;;;;;;;39.95;23.67;;;9.20;99.90;;;;;;5164654;28;20034;-70
2023/01/22 07:28:11;;;;;;;35.17;22.23;;;9.30;99.90;;;;;;5164717;28;20054;-63
2023/01/22 07:30:45;;;;;;;37.13;25.52;;;9.50;99.90;;;;;;5164532;28;20474;-71
2023/01/22 07:33:18;;;;;;;28.88;20.20;;;9.40;99.90;;;;;;5164522;28;20031;-64
2023/01/22 07:35:54;;;;;;;54.03;19.02;;;9.70;99.90;;;;;;5164244;28;20538;-69
2023/01/22 07:38:28;;;;;;;28.15;17.60;;;9.80;99.90;;;;;;5164752;28;20034;-63
2023/01/22 07:41:04;;;;;;;27.63;18.85;;;9.80;99.90;;;;;;5164734;28;20040;-63
2023/01/22 07:43:34;;;;;;;28.88;18.80;;;9.90;99.90;;;;;;5164799;28;20085;-63
2023/01/22 07:46:06;;;;;;;31.08;18.98;;;10.00;99.90;;;;;;5144395;28;20451;-65
2023/01/22 07:48:38;;;;;;;37.53;19.60;;;10.10;99.90;;;;;;5154455;28;20023;-73
2023/01/22 07:51:11;;;;;;;32.00;18.42;;;10.20;99.90;;;;;;5159909;28;20787;-70
2023/01/22 07:53:42;;;;;;;32.75;19.20;;;10.30;99.90;;;;;;5159779;28;20033;-72
2023/01/22 07:56:12;;;;;;;36.42;20.92;;;10.40;99.90;;;;;;5159763;28;20402;-63
2023/01/22 07:58:44;;;;;;;37.95;24.90;;;10.40;99.90;;;;;;5159629;28;20022;-72
2023/01/22 08:01:16;;;;;;;28.33;19.23;;;10.50;99.90;;;;;;5158656;28;20038;-68
2023/01/22 08:03:47;;;;;;;30.35;22.15;;;10.70;99.90;;;;;;5158887;28;20623;-67
2023/01/22 08:06:21;;;;;;;27.25;20.23;;;10.80;99.90;;;;;;5160140;28;20038;-72
2023/01/22 08:08:52;;;;;;;29.85;20.65;;;10.90;99.90;;;;;;5162490;28;20117;-72
2023/01/22 08:11:23;;;;;;;37.78;24.25;;;11.00;99.90;;;;;;5162289;28;20045;-69
2023/01/22 08:13:54;;;;;;;30.10;20.85;;;11.00;99.90;;;;;;5163024;28;20026;-72
2023/01/22 08:16:25;;;;;;;42.92;24.58;;;11.30;99.90;;;;;;5161569;28;20073;-68
2023/01/22 08:18:55;;;;;;;39.47;19.67;;;11.40;99.90;;;;;;5163107;28;20508;-63
2023/01/22 08:21:26;;;;;;;38.25;22.05;;;11.70;99.90;;;;;;5162664;28;20026;-68
2023/01/22 08:23:57;;;;;;;34.08;25.02;;;11.50;99.90;;;;;;5109356;28;20053;-68
2023/01/22 08:26:28;;;;;;;36.90;24.08;;;11.50;99.90;;;;;;5118350;28;20038;-69
2023/01/22 08:28:59;;;;;;;45.75;32.40;;;11.50;99.90;;;;;;5167665;28;20033;-65
2023/01/22 08:31:30;;;;;;;40.20;28.60;;;11.60;99.90;;;;;;5167524;28;20038;-63
2023/01/22 08:34:01;;;;;;;45.42;30.98;;;11.70;99.90;;;;;;5167543;28;20073;-70
2023/01/22 08:36:32;;;;;;;44.05;28.38;;;11.80;99.90;;;;;;5166475;28;20498;-63
2023/01/22 08:39:03;;;;;;;50.58;33.95;;;12.00;99.90;;;;;;5167653;28;20065;-72
2023/01/22 08:41:34;;;;;;;59.85;23.67;;;12.10;99.90;;;;;;5167384;28;20023;-63
2023/01/22 08:44:05;;;;;;;36.00;24.67;;;12.20;99.90;;;;;;5167510;28;20437;-63
2023/01/22 08:46:39;;;;;;;37.72;23.42;;;12.30;99.90;;;;;;5167421;28;20105;-63
2023/01/22 08:49:09;;;;;;;35.50;22.23;;;12.50;99.90;;;;;;5167424;28;20549;-63
2023/01/22 08:51:40;;;;;;;37.55;21.38;;;12.50;99.90;;;;;;5167102;28;20037;-75
2023/01/22 08:54:11;;;;;;;30.60;19.08;;;12.60;99.90;;;;;;5167128;28;20093;-63
2023/01/22 08:56:42;;;;;;;31.27;21.10;;;12.80;99.90;;;;;;5167009;28;20471;-63
2023/01/22 08:59:14;;;;;;;34.63;21.15;;;13.00;99.90;;;;;;5167091;28;20014;-63
2023/01/22 09:01:45;;;;;;;31.25;18.30;;;13.20;99.90;;;;;;5166992;28;20061;-63
2023/01/22 09:04:16;;;;;;;37.33;21.67;;;13.40;99.90;;;;;;5166985;28;20054;-64
2023/01/22 09:06:46;;;;;;;30.88;22.73;;;13.60;99.90;;;;;;5166824;28;20038;-63
2023/01/22 09:09:17;;;;;;;28.80;23.65;;;13.70;99.90;;;;;;5166703;28;20026;-63
2023/01/22 09:11:48;;;;;;;33.17;24.48;;;13.90;99.90;;;;;;5166893;28;20065;-67
2023/01/22 09:14:19;;;;;;;23.38;18.17;;;14.20;99.90;;;;;;5166712;28;20026;-63
2023/01/22 09:16:50;;;;;;;17.02;13.68;;;14.40;99.90;;;;;;5166798;28;20088;-64
2023/01/22 09:19:20;;;;;;;21.33;17.80;;;14.80;99.90;;;;;;5166122;28;20101;-64
2023/01/22 09:21:51;;;;;;;17.90;15.38;;;14.90;99.90;;;;;;5166402;28;20363;-76
2023/01/22 09:24:22;;;;;;;24.80;15.50;;;15.10;99.90;;;;;;5166977;28;20022;-63
2023/01/22 09:26:53;;;;;;;14.35;11.98;;;15.20;99.90;;;;;;5166729;28;20426;-64
2023/01/22 09:29:24;;;;;;;18.38;14.20;;;15.40;99.90;;;;;;5181491;28;20499;-63
2023/01/22 09:31:55;;;;;;;13.90;12.10;;;15.60;99.90;;;;;;5166404;28;20034;-64
2023/01/22 09:34:27;;;;;;;14.82;10.18;;;15.70;99.90;;;;;;5165787;28;20050;-64
2023/01/22 09:37:01;;;;;;;13.73;9.07;;;16.00;99.90;;;;;;5166101;28;20113;-63
2023/01/22 09:39:32;;;;;;;19.75;8.77;;;16.20;99.90;;;;;;5166164;28;20058;-64
2023/01/22 09:42:04;;;;;;;11.73;8.85;;;16.30;99.90;;;;;;5166092;28;20027;-62
2023/01/22 09:44:39;;;;;;;11.70;8.57;;;16.30;99.90;;;;;;5160170;28;20089;-64
2023/01/22 09:47:29;;;;;;;10.50;9.48;;;16.60;99.90;;;;;;5147932;28;20050;-64
2023/01/22 09:50:07;;;;;;;22.17;13.50;;;16.70;99.90;;;;;;5145858;28;20042;-64
2023/01/22 09:52:39;;;;;;;21.40;12.05;;;16.40;99.90;;;;;;5146055;28;20043;-64
2023/01/22 09:55:15;;;;;;;14.57;10.60;;;16.50;99.90;;;;;;5145910;28;20027;-64
2023/01/22 09:57:48;;;;;;;17.40;11.10;;;16.40;99.90;;;;;;5145987;28;20027;-64
2023/01/22 10:00:40;;;;;;;18.13;16.20;;;16.30;99.90;;;;;;5145876;28;20535;-63
2023/01/22 10:03:23;;;;;;;17.02;15.50;;;16.20;99.90;;;;;;5151438;28;20022;-70
2023/01/22 10:06:02;;;;;;;16.05;14.55;;;16.20;99.90;;;;;;5165755;28;20820;-64
2023/01/22 10:08:56;;;;;;;15.95;11.90;;;16.40;99.90;;;;;;5165778;28;20034;-64
2023/01/22 10:11:27;;;;;;;16.52;12.43;;;16.80;99.90;;;;;;5165653;28;20092;-63
2023/01/22 10:14:00;;;;;;;18.17;16.88;;;16.40;99.90;;;;;;5165782;28;20018;-63
2023/01/22 10:16:31;;;;;;;16.73;15.02;;;16.70;99.90;;;;;;5165704;28;20072;-64
2023/01/22 10:19:33;;;;;;;15.82;12.80;;;16.50;99.90;;;;;;5165884;28;20418;-63
2023/01/22 10:22:18;;;;;;;17.80;16.38;;;16.70;99.90;;;;;;5165308;28;20844;-63
2023/01/22 10:24:50;;;;;;;10.13;9.20;;;17.20;99.90;;;;;;5165621;28;20109;-75
2023/01/22 10:27:38;;;;;;;12.52;7.55;;;17.30;99.90;;;;;;5165592;28;20560;-64
2023/01/22 10:30:22;;;;;;;8.45;4.60;;;17.50;99.90;;;;;;5164431;28;20034;-65
2023/01/22 10:33:04;;;;;;;11.68;7.22;;;17.70;99.90;;;;;;5165831;28;20054;-76
2023/01/22 10:35:44;;;;;;;7.47;6.78;;;17.20;99.90;;;;;;5165136;28;20049;-64
2023/01/22 10:38:22;;;;;;;13.07;9.32;;;17.30;99.90;;;;;;5165550;28;20045;-64
2023/01/22 10:41:01;;;;;;;13.20;10.05;;;17.20;99.90;;;;;;5165447;28;20474;-64
2023/01/22 10:43:34;;;;;;;13.57;9.70;;;17.00;99.90;;;;;;5165582;28;20404;-63
2023/01/22 10:46:11;;;;;;;9.35;6.72;;;17.20;99.90;;;;;;5165370;28;20056;-65
2023/01/22 10:48:42;;;;;;;14.57;13.13;;;16.90;99.90;;;;;;5165336;28;20022;-63
2023/01/22 10:51:15;;;;;;;8.45;7.40;;;17.00;99.90;;;;;;5165275;28;20045;-63
2023/01/22 10:53:53;;;;;;;14.15;11.60;;;17.00;99.90;;;;;;5165258;28;20026;-68
2023/01/22 10:56:29;;;;;;;12.27;9.70;;;16.60;99.90;;;;;;5164179;28;20089;-65
2023/01/22 10:59:15;;;;;;;13.73;12.63;;;16.70;99.90;;;;;;5154396;28;20026;-64
2023/01/22 11:01:49;;;;;;;13.82;12.38;;;17.30;99.90;;;;;;5165169;28;20022;-63
2023/01/22 11:04:31;;;;;;;15.10;13.75;;;17.60;99.90;;;;;;5165067;28;20057;-63
2023/01/22 11:07:22;;;;;;;13.63;9.52;;;17.40;99.90;;;;;;5157593;28;20022;-64
2023/01/22 11:10:31;;;;;;;10.30;6.30;;;18.10;99.90;;;;;;5155504;28;20030;-64
2023/01/22 11:13:15;;;;;;;8.45;7.45;;;18.10;99.90;;;;;;5153830;28;20065;-73
2023/01/22 11:16:04;;;;;;;10.40;8.38;;;17.60;99.90;;;;;;5155074;28;20053;-69
2023/01/22 11:18:42;;;;;;;12.25;8.05;;;17.70;99.90;;;;;;5155128;28;20129;-63
2023/01/22 11:21:21;;;;;;;12.27;7.57;;;17.40;99.90;;;;;;5155037;28;20033;-73
2023/01/22 11:24:09;;;;;;;13.55;10.85;;;17.40;99.90;;;;;;5155146;28;20105;-64
2023/01/22 11:26:48;;;;;;;12.48;11.00;;;17.50;99.90;;;;;;5152795;28;20485;-64
2023/01/22 11:29:44;;;;;;;14.15;6.32;;;17.40;99.90;;;;;;5157283;28;20030;-64
2023/01/22 11:32:21;;;;;;;7.40;6.00;;;17.50;99.90;;;;;;5164714;28;20095;-64
2023/01/22 11:35:03;;;;;;;9.35;4.70;;;17.80;99.90;;;;;;5164392;28;20030;-64
2023/01/22 11:38:11;;;;;;;64.75;18.30;;;18.00;99.90;;;;;;5164676;28;20150;-63
2023/01/22 11:41:05;;;;;;;9.63;7.50;;;18.60;99.90;;;;;;5165416;28;20022;-64
2023/01/22 11:44:00;;;;;;;18.42;6.18;;;18.00;99.90;;;;;;5168602;28;20033;-71
2023/01/22 11:46:46;;;;;;;12.48;5.45;;;18.70;99.90;;;;;;5168714;28;20034;-70
2023/01/22 11:49:25;;;;;;;10.52;5.50;;;18.20;99.90;;;;;;5168471;28;20088;-79
2023/01/22 11:52:17;;;;;;;17.80;16.00;;;18.00;99.90;;;;;;5168499;28;20066;-75
2023/01/22 11:54:50;;;;;;;8.40;5.78;;;18.10;99.90;;;;;;5167968;28;20038;-69
2023/01/22 11:57:30;;;;;;;8.63;7.88;;;18.00;99.90;;;;;;5168461;28;20593;-75
2023/01/22 12:00:22;;;;;;;10.95;6.03;;;18.00;99.90;;;;;;5168249;28;20035;-75
2023/01/22 12:03:14;;;;;;;7.32;4.88;;;18.40;99.90;;;;;;5168250;28;20026;-75
2023/01/22 12:05:57;;;;;;;6.53;4.10;;;18.20;99.90;;;;;;5167903;28;20069;-75
2023/01/22 12:08:33;;;;;;;5.65;3.92;;;18.10;99.90;;;;;;5168141;28;20030;-66
2023/01/22 12:11:37;;;;;;;9.02;4.22;;;18.10;99.90;;;;;;5161965;28;20077;-67
2023/01/22 12:14:19;;;;;;;4.85;4.43;;;18.20;99.90;;;;;;5147924;28;20027;-64
2023/01/22 12:17:05;;;;;;;6.00;5.10;;;18.30;99.90;;;;;;5147796;28;20035;-64
2023/01/22 12:19:48;;;;;;;7.38;3.97;;;18.50;99.90;;;;;;5147822;28;20019;-64
2023/01/22 12:22:35;;;;;;;7.18;3.95;;;18.90;99.90;;;;;;5147772;28;20027;-63
2023/01/22 12:25:35;;;;;;;7.70;3.38;;;19.00;99.90;;;;;;5147640;28;20037;-64
2023/01/22 12:28:20;;;;;;;6.80;3.47;;;18.90;99.90;;;;;;5147745;28;20015;-64
2023/01/22 12:31:20;;;;;;;6.88;4.60;;;18.80;99.90;;;;;;5158956;28;20545;-64
2023/01/22 12:33:51;;;;;;;4.57;3.42;;;19.30;99.90;;;;;;5170882;28;20529;-65
2023/01/22 12:36:24;;;;;;;4.45;3.78;;;19.20;99.90;;;;;;5147315;28;20051;-64
2023/01/22 12:39:22;;;;;;;6.43;4.68;;;18.90;99.90;;;;;;5162755;28;20572;-67
2023/01/22 12:41:53;;;;;;;6.75;6.03;;;18.10;99.90;;;;;;5167313;28;20050;-69
2023/01/22 12:45:01;;;;;;;11.68;6.78;;;18.20;99.90;;;;;;5167277;28;20072;-55
2023/01/22 12:47:44;;;;;;;10.27;6.30;;;18.40;99.90;;;;;;5167052;28;20053;-52
2023/01/22 12:50:18;;;;;;;5.03;3.58;;;18.00;99.90;;;;;;5167507;28;20046;-54
2023/01/22 12:53:00;;;;;;;5.05;3.80;;;18.40;99.90;;;;;;5166472;28;20112;-52
2023/01/22 12:55:41;;;;;;;8.05;5.97;;;18.80;99.90;;;;;;5167033;28;20068;-56
2023/01/22 12:58:24;;;;;;;9.88;5.15;;;19.10;99.90;;;;;;5167192;28;20062;-53
2023/01/22 13:01:06;;;;;;;6.40;4.38;;;18.80;99.90;;;;;;5167297;28;20040;-52
2023/01/22 13:03:39;;;;;;;7.82;3.83;;;19.00;99.90;;;;;;5167312;28;20076;-56
2023/01/22 13:06:28;;;;;;;6.38;3.55;;;19.20;99.90;;;;;;5167140;28;20431;-56
2023/01/22 13:09:00;;;;;;;7.00;3.80;;;19.30;99.80;;;;;;5167256;28;20142;-56
2023/01/22 13:11:37;;;;;;;5.65;4.60;;;19.60;99.90;;;;;;5167025;28;20048;-53
2023/01/22 13:14:19;;;;;;;6.45;3.80;;;19.10;99.90;;;;;;5166917;28;20030;-56
2023/01/22 13:16:59;;;;;;;5.10;4.50;;;19.20;99.90;;;;;;5167126;28;20475;-57
2023/01/22 13:19:35;;;;;;;;;;;19.40;99.90;;;;;;5167385;28;20030;-55
2023/01/22 13:22:12;;;;;;;11.32;10.43;;;19.00;99.90;;;;;;5166827;28;19996;-56